Time;durP1;ratioP1;P1;durP2;ratioP2;P2;SDS_P1;SDS_P2;PMS_P1;PMS_P2;Temp;Humidity;BMP_temperature;BMP_pressure;BME280_temperature;BME280_humidity;BME280_pressure;Samples;Min_cycle;Max_cycle;Signal;HPM_P1;HPM_P2
2024/04/26 00:08:48;;;;;;;25.10;13.60;;;;;;;5.97;84.20;99616.20;673934;1262;139086;-79
2024/04/26 00:23:51;;;;;;;25.70;15.70;;;;;;;5.89;83.02;99629.25;673836;1262;139374;-79
2024/04/26 00:38:54;;;;;;;38.10;19.40;;;;;;;5.66;82.39;99624.61;674113;1259;139457;-79
2024/04/26 00:53:59;;;;;;;28.20;15.10;;;;;;;5.52;81.71;99626.28;675668;1262;139212;-79
2024/04/26 01:09:02;;;;;;;25.20;13.30;;;;;;;5.34;81.51;99635.21;674160;1263;140356;-79
2024/04/26 01:24:05;;;;;;;24.70;13.50;;;;;;;5.25;81.62;99638.88;670215;1268;139828;-78
2024/04/26 01:39:08;;;;;;;41.30;19.10;;;;;;;5.32;81.87;99648.91;674467;1274;139878;-79
2024/04/26 01:54:12;;;;;;;48.00;21.60;;;;;;;5.34;81.52;99653.44;671788;1262;139961;-80
2024/04/26 02:09:15;;;;;;;32.10;18.50;;;;;;;5.43;82.37;99655.18;672489;1273;140266;-79
2024/04/26 02:24:18;;;;;;;26.80;14.70;;;;;;;5.40;83.89;99663.05;674159;1262;139617;-80
2024/04/26 02:39:21;;;;;;;27.70;15.00;;;;;;;5.18;83.10;99664.33;673063;1262;142055;-79
2024/04/26 02:54:24;;;;;;;25.40;13.50;;;;;;;4.96;82.49;99667.55;675503;1262;139970;-80
2024/04/26 03:09:27;;;;;;;33.40;15.40;;;;;;;4.78;85.14;99676.86;675555;1276;139910;-80
2024/04/26 03:24:31;;;;;;;31.90;17.30;;;;;;;4.75;85.85;99685.57;669882;1263;139827;-80
2024/04/26 03:39:34;;;;;;;31.30;17.00;;;;;;;4.70;84.85;99692.34;673407;1262;139849;-79
2024/04/26 03:54:37;;;;;;;30.90;17.60;;;;;;;4.65;85.05;99708.61;672367;1264;140179;-79
2024/04/26 04:09:40;;;;;;;37.00;19.20;;;;;;;4.73;87.29;99718.29;673269;1262;139336;-79
2024/04/26 04:24:44;;;;;;;34.50;19.40;;;;;;;4.91;87.35;99726.32;672903;1260;140025;-80
2024/04/26 04:39:47;;;;;;;41.80;24.60;;;;;;;5.24;86.37;99741.98;673785;1266;139646;-80
2024/04/26 04:54:50;;;;;;;29.70;18.00;;;;;;;5.59;86.30;99754.26;673839;1267;139412;-78
2024/04/26 05:09:53;;;;;;;24.80;15.20;;;;;;;6.13;87.02;99763.33;674991;1266;140729;-80
2024/04/26 05:24:57;;;;;;;24.10;13.90;;;;;;;7.55;87.32;99777.48;676428;1265;139961;-77
2024/04/26 05:40:00;;;;;;;18.20;10.80;;;;;;;11.04;81.24;99793.14;677593;1263;140594;-79
2024/04/26 05:55:04;;;;;;;14.90;9.80;;;;;;;13.75;74.26;99801.89;672509;1264;139949;-80
2024/04/26 06:10:07;;;;;;;13.60;8.50;;;;;;;14.65;67.13;99814.54;672930;1263;139633;-78
2024/04/26 06:25:10;;;;;;;12.50;8.80;;;;;;;14.91;63.03;99824.06;674352;1264;138794;-80
2024/04/26 06:40:13;;;;;;;14.40;9.90;;;;;;;15.86;60.76;99831.67;673082;1261;138651;-78
2024/04/26 06:55:17;;;;;;;11.50;7.90;;;;;;;16.71;58.24;99843.52;671797;1264;139526;-79
2024/04/26 07:10:20;;;;;;;13.70;8.30;;;;;;;17.04;56.60;99855.48;669898;1267;138983;-80
2024/04/26 07:25:24;;;;;;;9.60;6.80;;;;;;;18.06;55.22;99861.04;669659;1275;139353;-81
2024/04/26 07:40:28;;;;;;;9.00;6.50;;;;;;;18.08;54.34;99868.71;673664;1264;140113;-80
2024/04/26 07:55:32;;;;;;;11.80;8.20;;;;;;;18.07;54.04;99875.28;673256;1261;140052;-81
2024/04/26 08:10:35;;;;;;;15.60;10.70;;;;;;;18.74;53.12;99880.34;673973;1263;139169;-79
2024/04/26 08:25:39;;;;;;;17.90;11.30;;;;;;;18.42;52.51;99874.21;674070;1264;139044;-79
2024/04/26 08:40:43;;;;;;;9.20;6.40;;;;;;;18.49;51.71;99870.91;675086;1263;140895;-79
2024/04/26 08:55:46;;;;;;;9.20;6.20;;;;;;;17.45;51.17;99879.16;672254;1264;139940;-78
2024/04/26 09:10:51;;;;;;;6.90;5.50;;;;;;;17.68;52.06;99877.02;672478;1264;306807;-78
2024/04/26 09:26:06;;;;;;;5.30;4.30;;;;;;;18.32;50.26;99885.91;671421;1264;138341;-78
2024/04/26 09:41:10;;;;;;;9.30;5.60;;;;;;;17.84;49.68;99876.70;672352;1260;138398;-77
2024/04/26 09:56:15;;;;;;;7.00;4.60;;;;;;;19.48;47.61;99876.63;669645;1264;139083;-79
2024/04/26 10:11:21;;;;;;;6.30;5.00;;;;;;;18.96;46.19;99880.58;666754;1262;140343;-79
2024/04/26 10:26:35;;;;;;;7.00;5.40;;;;;;;19.16;44.75;99877.31;666013;1265;139263;-77
2024/04/26 10:41:39;;;;;;;5.70;3.50;;;;;;;18.72;44.34;99875.92;669931;1264;138860;-77
2024/04/26 10:56:43;;;;;;;7.10;4.10;;;;;;;18.06;44.15;99875.20;666147;1264;138201;-78
2024/04/26 11:11:47;;;;;;;7.10;4.10;;;;;;;17.71;44.72;99874.91;666254;1264;139719;-78
2024/04/26 11:26:52;;;;;;;6.60;5.20;;;;;;;17.33;44.75;99873.17;668331;1264;139696;-79
2024/04/26 11:41:55;;;;;;;5.70;4.20;;;;;;;18.09;43.63;99877.63;666429;1264;138930;-78
2024/04/26 11:57:00;;;;;;;10.40;4.50;;;;;;;16.84;44.11;99885.95;664881;1264;139255;-79
2024/04/26 12:12:09;;;;;;;6.70;4.10;;;;;;;16.63;45.44;99892.13;664143;1262;139753;-78
2024/04/26 12:27:20;;;;;;;6.80;5.50;;;;;;;16.58;46.13;99896.23;665726;1263;138271;-78
2024/04/26 12:42:24;;;;;;;6.40;4.50;;;;;;;16.42;46.40;99903.14;668055;1278;138742;-80
2024/04/26 12:57:27;;;;;;;4.80;3.80;;;;;;;15.63;47.24;99910.55;672005;1264;139706;-80
2024/04/26 13:12:34;;;;;;;8.40;4.20;;;;;;;15.96;47.72;99910.63;673589;1266;139768;-77
2024/04/26 13:27:41;;;;;;;7.20;4.90;;;;;;;16.51;47.61;99907.10;668463;1264;139312;-77
2024/04/26 13:42:45;;;;;;;7.10;3.10;;;;;;;16.49;47.53;99904.88;670060;1265;140223;-77
2024/04/26 13:57:48;;;;;;;6.40;3.70;;;;;;;16.81;47.94;99907.49;674699;1264;138535;-76
2024/04/26 14:12:51;;;;;;;7.30;4.70;;;;;;;17.63;46.64;99906.61;673096;1264;138885;-79
2024/04/26 14:27:55;;;;;;;10.00;4.80;;;;;;;17.06;46.91;99907.23;672226;1262;138476;-79
2024/04/26 14:42:58;;;;;;;5.50;3.40;;;;;;;16.92;46.30;99905.16;672750;1277;140360;-77
2024/04/26 14:58:01;;;;;;;15.60;7.40;;;;;;;16.13;47.37;99905.50;675432;1264;138785;-78
2024/04/26 15:13:05;;;;;;;21.60;8.00;;;;;;;16.24;47.65;99913.89;670816;1263;138787;-78
2024/04/26 15:28:09;;;;;;;4.80;3.00;;;;;;;16.49;47.25;99914.44;674786;1264;138973;-79
2024/04/26 15:43:16;;;;;;;19.40;4.30;;;;;;;16.02;46.89;99916.08;672790;1276;138517;-80
2024/04/26 15:58:22;;;;;;;12.20;7.40;;;;;;;16.12;46.51;99908.34;672436;1276;139251;-80
2024/04/26 16:13:25;;;;;;;53.10;34.30;;;;;;;16.22;46.40;99910.36;673715;1273;139855;-80
2024/04/26 16:28:29;;;;;;;8.60;4.60;;;;;;;15.82;46.67;99910.46;674787;1263;139286;-80
2024/04/26 16:43:32;;;;;;;8.50;4.10;;;;;;;15.79;47.00;99904.48;674697;1265;139004;-79
2024/04/26 16:58:36;;;;;;;136.40;79.30;;;;;;;15.82;48.48;99909.02;671165;1267;139315;-78
2024/04/26 17:13:39;;;;;;;129.20;77.00;;;;;;;15.39;49.22;99918.36;672753;1274;139722;-80
2024/04/26 17:28:43;;;;;;;26.30;16.30;;;;;;;14.82;50.24;99922.97;675600;1275;139548;-79
2024/04/26 17:43:47;;;;;;;27.50;11.20;;;;;;;14.28;51.45;99935.73;678177;1264;139018;-79
2024/04/26 17:58:51;;;;;;;115.30;42.90;;;;;;;13.83;52.21;99949.92;670812;1265;138819;-79
2024/04/26 18:14:00;;;;;;;92.90;50.40;;;;;;;13.12;53.63;99955.40;675792;1262;139018;-79
2024/04/26 18:29:04;;;;;;;63.60;23.20;;;;;;;12.20;55.07;99965.77;675868;1270;139383;-79
2024/04/26 18:44:08;;;;;;;104.20;47.90;;;;;;;11.61;56.52;99986.55;675250;1260;139131;-79
2024/04/26 18:59:11;;;;;;;60.90;28.60;;;;;;;11.38;57.20;99997.52;673423;1262;139411;-79
2024/04/26 19:14:14;;;;;;;56.00;24.30;;;;;;;10.96;57.94;99998.64;677068;1264;139854;-78
2024/04/26 19:29:20;;;;;;;71.30;27.80;;;;;;;10.70;59.34;100011.25;674650;1264;138834;-80
2024/04/26 19:44:23;;;;;;;391.70;167.60;;;;;;;10.47;59.76;100018.90;673824;1265;139159;-80
2024/04/26 19:59:26;;;;;;;74.70;29.60;;;;;;;10.30;60.15;100020.30;669553;1263;140057;-80
2024/04/26 20:14:30;;;;;;;48.00;21.20;;;;;;;10.25;60.29;100020.25;673744;1263;139423;-80
2024/04/26 20:29:33;;;;;;;41.00;20.90;;;;;;;10.21;60.51;100018.95;674834;1262;140008;-80
2024/04/26 20:44:37;;;;;;;88.50;34.30;;;;;;;10.11;61.02;100026.36;669851;1265;140005;-79
2024/04/26 20:59:40;;;;;;;44.10;21.10;;;;;;;9.97;61.50;100032.81;673926;1263;140279;-80
2024/04/26 21:14:43;;;;;;;100.40;35.30;;;;;;;9.94;61.48;100041.14;669374;1265;204576;-80
2024/04/26 21:29:46;;;;;;;73.30;32.60;;;;;;;10.04;62.64;100042.52;669403;1264;139844;-81
2024/04/26 21:44:49;;;;;;;28.30;14.90;;;;;;;9.96;63.57;100032.55;670717;1265;140004;-80
2024/04/26 21:59:53;;;;;;;32.50;13.90;;;;;;;10.02;62.68;100032.62;670132;1266;139699;-81
2024/04/26 22:14:55;;;;;;;44.60;18.50;;;;;;;10.29;62.45;100031.77;667068;1269;139311;-80
2024/04/26 22:29:59;;;;;;;39.10;16.90;;;;;;;10.55;62.02;100036.23;670421;1265;140358;-79
2024/04/26 22:45:05;;;;;;;32.90;15.60;;;;;;;10.69;61.61;100034.58;669601;1265;139485;-79
2024/04/26 23:00:15;;;;;;;33.70;15.40;;;;;;;10.79;61.12;100028.29;671029;1266;140279;-79
2024/04/26 23:15:19;;;;;;;55.60;22.10;;;;;;;10.95;61.10;100025.23;668638;1277;139742;-80
2024/04/26 23:30:23;;;;;;;47.60;17.40;;;;;;;10.99;61.07;100022.04;667909;1265;140819;-80
2024/04/26 23:45:26;;;;;;;37.90;16.20;;;;;;;11.02;60.38;100014.95;667873;1260;140339;-79
